New Harmony, Utah
Current Conditions -  °F | °C
As of 11:53 AM on Thursday 23 Oct 2014 (Local Time) from KCDC Reporting Station
Clear Clear  
Wind Chill: 65°   Ceiling: Unl
Heat Index: 65°   Visibility: 10mi
Dew Point: 31°   Wind: 14mph
Humidity: 28%   Direction: 220°SW
Pressure: 30.24"   Gusts: NA
Location:  37.48°N, 113.31°W
Report Text: KCDC 231753Z AUTO 22012KT 10SM CLR 18/M01 A3024 RMK AO2 SLP194 T01831006 10189 20000 50001 TSNO
Loading
Personal Weather Stations






























Interactive Weather Map
Tropical Storm Tracking
New forecast layout! Learn more

10-Day Weather Forecast

Advertisements
Track Severe Weather on mobile